sensor_id;sensor_type;location;lat;lon;timestamp;P1;durP1;ratioP1;P2;durP2;ratioP2
46437;SDS011;32137;48.728;9.142;2023-06-14T00:00:38;8.90;;;4.53;;
46437;SDS011;32137;48.728;9.142;2023-06-14T00:03:06;6.82;;;4.68;;
46437;SDS011;32137;48.728;9.142;2023-06-14T00:05:35;8.05;;;4.68;;
46437;SDS011;32137;48.728;9.142;2023-06-14T00:08:05;9.70;;;4.43;;
46437;SDS011;32137;48.728;9.142;2023-06-14T00:10:33;7.25;;;4.47;;
46437;SDS011;32137;48.728;9.142;2023-06-14T00:13:00;8.57;;;4.25;;
46437;SDS011;32137;48.728;9.142;2023-06-14T00:15:30;13.25;;;4.55;;
46437;SDS011;32137;48.728;9.142;2023-06-14T00:17:59;10.38;;;4.10;;
46437;SDS011;32137;48.728;9.142;2023-06-14T00:20:29;6.93;;;4.50;;
46437;SDS011;32137;48.728;9.142;2023-06-14T00:22:55;7.18;;;4.88;;
46437;SDS011;32137;48.728;9.142;2023-06-14T00:25:25;7.75;;;4.45;;
46437;SDS011;32137;48.728;9.142;2023-06-14T00:27:51;5.65;;;4.40;;
46437;SDS011;32137;48.728;9.142;2023-06-14T00:30:17;7.43;;;4.75;;
46437;SDS011;32137;48.728;9.142;2023-06-14T00:32:43;6.78;;;4.47;;
46437;SDS011;32137;48.728;9.142;2023-06-14T00:35:09;12.40;;;4.85;;
46437;SDS011;32137;48.728;9.142;2023-06-14T00:37:35;8.00;;;4.10;;
46437;SDS011;32137;48.728;9.142;2023-06-14T00:40:00;7.38;;;4.88;;
46437;SDS011;32137;48.728;9.142;2023-06-14T00:42:26;12.18;;;4.97;;
46437;SDS011;32137;48.728;9.142;2023-06-14T00:44:53;12.93;;;4.50;;
46437;SDS011;32137;48.728;9.142;2023-06-14T00:47:19;6.47;;;4.93;;
46437;SDS011;32137;48.728;9.142;2023-06-14T00:49:45;8.73;;;4.35;;
46437;SDS011;32137;48.728;9.142;2023-06-14T00:52:12;7.75;;;4.50;;
46437;SDS011;32137;48.728;9.142;2023-06-14T00:54:39;7.03;;;5.07;;
46437;SDS011;32137;48.728;9.142;2023-06-14T00:57:05;9.48;;;4.85;;
46437;SDS011;32137;48.728;9.142;2023-06-14T00:59:32;9.13;;;4.97;;
46437;SDS011;32137;48.728;9.142;2023-06-14T01:01:58;7.55;;;5.20;;
46437;SDS011;32137;48.728;9.142;2023-06-14T01:04:23;9.70;;;4.18;;
46437;SDS011;32137;48.728;9.142;2023-06-14T01:06:54;10.25;;;4.43;;
46437;SDS011;32137;48.728;9.142;2023-06-14T01:09:33;9.60;;;4.70;;
46437;SDS011;32137;48.728;9.142;2023-06-14T01:15:02;8.52;;;4.60;;
46437;SDS011;32137;48.728;9.142;2023-06-14T01:17:28;7.10;;;4.32;;
46437;SDS011;32137;48.728;9.142;2023-06-14T01:19:57;7.10;;;5.15;;
46437;SDS011;32137;48.728;9.142;2023-06-14T01:22:26;6.40;;;4.65;;
46437;SDS011;32137;48.728;9.142;2023-06-14T01:24:53;9.73;;;4.82;;
46437;SDS011;32137;48.728;9.142;2023-06-14T01:27:21;7.60;;;4.80;;
46437;SDS011;32137;48.728;9.142;2023-06-14T01:29:49;8.52;;;4.90;;
46437;SDS011;32137;48.728;9.142;2023-06-14T01:32:21;9.90;;;4.75;;
46437;SDS011;32137;48.728;9.142;2023-06-14T01:34:49;6.45;;;4.13;;
46437;SDS011;32137;48.728;9.142;2023-06-14T01:37:14;8.65;;;4.60;;
46437;SDS011;32137;48.728;9.142;2023-06-14T01:39:42;10.93;;;5.47;;
46437;SDS011;32137;48.728;9.142;2023-06-14T01:42:08;6.60;;;4.93;;
46437;SDS011;32137;48.728;9.142;2023-06-14T01:44:36;8.23;;;4.85;;
46437;SDS011;32137;48.728;9.142;2023-06-14T01:47:02;8.57;;;5.35;;
46437;SDS011;32137;48.728;9.142;2023-06-14T01:49:28;14.10;;;5.00;;
46437;SDS011;32137;48.728;9.142;2023-06-14T01:51:53;9.73;;;4.30;;
46437;SDS011;32137;48.728;9.142;2023-06-14T01:54:19;7.38;;;4.50;;
46437;SDS011;32137;48.728;9.142;2023-06-14T01:56:44;11.65;;;5.03;;
46437;SDS011;32137;48.728;9.142;2023-06-14T01:59:10;6.25;;;4.72;;
46437;SDS011;32137;48.728;9.142;2023-06-14T02:01:36;10.07;;;4.90;;
46437;SDS011;32137;48.728;9.142;2023-06-14T02:04:01;8.93;;;4.82;;
46437;SDS011;32137;48.728;9.142;2023-06-14T02:06:27;9.27;;;5.85;;
46437;SDS011;32137;48.728;9.142;2023-06-14T02:08:53;6.78;;;4.68;;
46437;SDS011;32137;48.728;9.142;2023-06-14T02:11:18;6.55;;;4.38;;
46437;SDS011;32137;48.728;9.142;2023-06-14T02:13:44;11.38;;;5.20;;
46437;SDS011;32137;48.728;9.142;2023-06-14T02:16:10;8.27;;;4.95;;
46437;SDS011;32137;48.728;9.142;2023-06-14T02:18:36;8.27;;;4.82;;
46437;SDS011;32137;48.728;9.142;2023-06-14T02:21:01;7.32;;;4.88;;
46437;SDS011;32137;48.728;9.142;2023-06-14T02:23:27;6.57;;;4.55;;
46437;SDS011;32137;48.728;9.142;2023-06-14T02:25:52;11.45;;;5.18;;
46437;SDS011;32137;48.728;9.142;2023-06-14T02:28:18;8.88;;;4.80;;
46437;SDS011;32137;48.728;9.142;2023-06-14T02:30:43;6.32;;;4.68;;
46437;SDS011;32137;48.728;9.142;2023-06-14T02:33:09;6.55;;;4.80;;
46437;SDS011;32137;48.728;9.142;2023-06-14T02:35:37;7.20;;;4.35;;
46437;SDS011;32137;48.728;9.142;2023-06-14T02:38:03;8.43;;;5.18;;
46437;SDS011;32137;48.728;9.142;2023-06-14T02:40:29;6.47;;;4.88;;
46437;SDS011;32137;48.728;9.142;2023-06-14T02:42:54;6.90;;;4.90;;
46437;SDS011;32137;48.728;9.142;2023-06-14T02:45:20;11.43;;;5.28;;
46437;SDS011;32137;48.728;9.142;2023-06-14T02:47:46;8.32;;;5.30;;
46437;SDS011;32137;48.728;9.142;2023-06-14T02:50:11;7.82;;;4.57;;
46437;SDS011;32137;48.728;9.142;2023-06-14T02:52:37;8.85;;;4.80;;
46437;SDS011;32137;48.728;9.142;2023-06-14T02:55:03;6.15;;;3.88;;
46437;SDS011;32137;48.728;9.142;2023-06-14T02:57:29;6.95;;;4.38;;
46437;SDS011;32137;48.728;9.142;2023-06-14T02:59:55;9.55;;;4.90;;
46437;SDS011;32137;48.728;9.142;2023-06-14T03:02:20;7.15;;;4.75;;
46437;SDS011;32137;48.728;9.142;2023-06-14T03:04:46;9.05;;;5.07;;
46437;SDS011;32137;48.728;9.142;2023-06-14T03:07:11;10.57;;;4.65;;
46437;SDS011;32137;48.728;9.142;2023-06-14T03:09:38;7.30;;;4.45;;
46437;SDS011;32137;48.728;9.142;2023-06-14T03:12:05;6.80;;;4.57;;
46437;SDS011;32137;48.728;9.142;2023-06-14T03:14:34;7.03;;;4.88;;
46437;SDS011;32137;48.728;9.142;2023-06-14T03:17:00;7.00;;;4.60;;
46437;SDS011;32137;48.728;9.142;2023-06-14T03:19:26;11.20;;;5.90;;
46437;SDS011;32137;48.728;9.142;2023-06-14T03:21:52;8.15;;;4.38;;
46437;SDS011;32137;48.728;9.142;2023-06-14T03:24:18;10.82;;;5.72;;
46437;SDS011;32137;48.728;9.142;2023-06-14T03:26:44;12.70;;;4.75;;
46437;SDS011;32137;48.728;9.142;2023-06-14T03:29:10;7.35;;;4.10;;
46437;SDS011;32137;48.728;9.142;2023-06-14T03:31:36;13.75;;;4.85;;
46437;SDS011;32137;48.728;9.142;2023-06-14T03:34:06;8.02;;;4.95;;
46437;SDS011;32137;48.728;9.142;2023-06-14T03:36:31;9.07;;;5.30;;
46437;SDS011;32137;48.728;9.142;2023-06-14T03:38:58;9.68;;;4.32;;
46437;SDS011;32137;48.728;9.142;2023-06-14T03:41:24;14.43;;;5.35;;
46437;SDS011;32137;48.728;9.142;2023-06-14T03:43:50;8.43;;;4.70;;
46437;SDS011;32137;48.728;9.142;2023-06-14T03:46:15;11.18;;;4.93;;
46437;SDS011;32137;48.728;9.142;2023-06-14T03:48:41;6.40;;;4.85;;
46437;SDS011;32137;48.728;9.142;2023-06-14T03:51:06;9.80;;;5.13;;
46437;SDS011;32137;48.728;9.142;2023-06-14T03:53:32;18.65;;;5.40;;
46437;SDS011;32137;48.728;9.142;2023-06-14T03:55:57;8.80;;;5.22;;
46437;SDS011;32137;48.728;9.142;2023-06-14T03:58:24;8.63;;;4.93;;
46437;SDS011;32137;48.728;9.142;2023-06-14T04:00:50;8.02;;;4.30;;
46437;SDS011;32137;48.728;9.142;2023-06-14T04:03:15;11.23;;;4.57;;
46437;SDS011;32137;48.728;9.142;2023-06-14T04:05:41;7.53;;;4.85;;
46437;SDS011;32137;48.728;9.142;2023-06-14T04:08:07;7.40;;;4.85;;
46437;SDS011;32137;48.728;9.142;2023-06-14T04:10:39;6.70;;;4.68;;
46437;SDS011;32137;48.728;9.142;2023-06-14T04:13:05;9.07;;;4.75;;
46437;SDS011;32137;48.728;9.142;2023-06-14T04:15:32;8.52;;;5.00;;
46437;SDS011;32137;48.728;9.142;2023-06-14T04:17:58;6.40;;;5.05;;
46437;SDS011;32137;48.728;9.142;2023-06-14T04:20:23;8.07;;;4.80;;
46437;SDS011;32137;48.728;9.142;2023-06-14T04:22:50;7.50;;;4.70;;
46437;SDS011;32137;48.728;9.142;2023-06-14T04:25:16;8.27;;;4.93;;
46437;SDS011;32137;48.728;9.142;2023-06-14T04:27:42;11.20;;;4.90;;
46437;SDS011;32137;48.728;9.142;2023-06-14T04:30:08;7.20;;;4.90;;
46437;SDS011;32137;48.728;9.142;2023-06-14T04:32:34;9.15;;;5.07;;
46437;SDS011;32137;48.728;9.142;2023-06-14T04:35:03;11.02;;;4.82;;
46437;SDS011;32137;48.728;9.142;2023-06-14T04:37:30;11.55;;;5.13;;
46437;SDS011;32137;48.728;9.142;2023-06-14T04:39:56;6.80;;;4.85;;
46437;SDS011;32137;48.728;9.142;2023-06-14T04:42:22;7.57;;;4.30;;
46437;SDS011;32137;48.728;9.142;2023-06-14T04:44:49;24.13;;;6.05;;
46437;SDS011;32137;48.728;9.142;2023-06-14T04:47:16;11.27;;;5.38;;
46437;SDS011;32137;48.728;9.142;2023-06-14T04:49:42;8.90;;;5.65;;
46437;SDS011;32137;48.728;9.142;2023-06-14T04:52:07;12.45;;;5.55;;
46437;SDS011;32137;48.728;9.142;2023-06-14T04:54:35;12.40;;;5.55;;
46437;SDS011;32137;48.728;9.142;2023-06-14T04:57:06;7.38;;;5.25;;
46437;SDS011;32137;48.728;9.142;2023-06-14T04:59:33;7.78;;;5.10;;
46437;SDS011;32137;48.728;9.142;2023-06-14T05:02:00;7.22;;;5.05;;
46437;SDS011;32137;48.728;9.142;2023-06-14T05:04:26;6.97;;;4.95;;
46437;SDS011;32137;48.728;9.142;2023-06-14T05:06:53;6.68;;;4.68;;
46437;SDS011;32137;48.728;9.142;2023-06-14T05:09:19;8.70;;;5.13;;
46437;SDS011;32137;48.728;9.142;2023-06-14T05:11:45;27.65;;;5.00;;
46437;SDS011;32137;48.728;9.142;2023-06-14T05:14:12;7.43;;;4.88;;
46437;SDS011;32137;48.728;9.142;2023-06-14T05:16:38;7.60;;;5.45;;
46437;SDS011;32137;48.728;9.142;2023-06-14T05:19:05;11.32;;;5.35;;
46437;SDS011;32137;48.728;9.142;2023-06-14T05:21:31;7.57;;;5.03;;
46437;SDS011;32137;48.728;9.142;2023-06-14T05:23:58;6.43;;;4.95;;
46437;SDS011;32137;48.728;9.142;2023-06-14T05:26:24;7.80;;;4.80;;
46437;SDS011;32137;48.728;9.142;2023-06-14T05:28:53;6.38;;;5.05;;
46437;SDS011;32137;48.728;9.142;2023-06-14T05:31:25;8.07;;;4.75;;
46437;SDS011;32137;48.728;9.142;2023-06-14T05:33:52;6.22;;;4.25;;
46437;SDS011;32137;48.728;9.142;2023-06-14T05:36:18;8.57;;;5.43;;
46437;SDS011;32137;48.728;9.142;2023-06-14T05:38:45;13.45;;;5.88;;
46437;SDS011;32137;48.728;9.142;2023-06-14T05:41:10;12.50;;;5.13;;
46437;SDS011;32137;48.728;9.142;2023-06-14T05:43:36;15.43;;;6.32;;
46437;SDS011;32137;48.728;9.142;2023-06-14T05:46:02;15.07;;;5.40;;
46437;SDS011;32137;48.728;9.142;2023-06-14T05:50:55;9.07;;;5.53;;
46437;SDS011;32137;48.728;9.142;2023-06-14T05:53:21;15.05;;;6.20;;
46437;SDS011;32137;48.728;9.142;2023-06-14T05:55:46;15.95;;;5.03;;
46437;SDS011;32137;48.728;9.142;2023-06-14T05:58:12;8.32;;;4.78;;
46437;SDS011;32137;48.728;9.142;2023-06-14T06:00:38;12.02;;;4.93;;
46437;SDS011;32137;48.728;9.142;2023-06-14T06:03:04;10.50;;;5.60;;
46437;SDS011;32137;48.728;9.142;2023-06-14T06:05:34;7.50;;;5.55;;
46437;SDS011;32137;48.728;9.142;2023-06-14T06:07:59;10.40;;;5.50;;
46437;SDS011;32137;48.728;9.142;2023-06-14T06:10:25;8.90;;;5.07;;
46437;SDS011;32137;48.728;9.142;2023-06-14T06:12:51;17.08;;;6.68;;
46437;SDS011;32137;48.728;9.142;2023-06-14T06:15:17;7.75;;;5.60;;
46437;SDS011;32137;48.728;9.142;2023-06-14T06:17:43;39.78;;;6.03;;
46437;SDS011;32137;48.728;9.142;2023-06-14T06:20:09;9.70;;;5.05;;
46437;SDS011;32137;48.728;9.142;2023-06-14T06:22:36;10.43;;;5.43;;
46437;SDS011;32137;48.728;9.142;2023-06-14T06:25:02;15.88;;;4.85;;
46437;SDS011;32137;48.728;9.142;2023-06-14T06:27:28;11.73;;;5.28;;
46437;SDS011;32137;48.728;9.142;2023-06-14T06:29:54;11.38;;;5.45;;
46437;SDS011;32137;48.728;9.142;2023-06-14T06:32:19;12.80;;;5.25;;
46437;SDS011;32137;48.728;9.142;2023-06-14T06:34:45;10.68;;;4.78;;
46437;SDS011;32137;48.728;9.142;2023-06-14T06:37:11;12.60;;;4.90;;
46437;SDS011;32137;48.728;9.142;2023-06-14T06:39:37;6.50;;;4.60;;
46437;SDS011;32137;48.728;9.142;2023-06-14T06:42:02;9.55;;;4.35;;
46437;SDS011;32137;48.728;9.142;2023-06-14T06:44:28;6.53;;;4.65;;
46437;SDS011;32137;48.728;9.142;2023-06-14T06:46:53;8.90;;;4.80;;
46437;SDS011;32137;48.728;9.142;2023-06-14T06:49:19;8.75;;;4.60;;
46437;SDS011;32137;48.728;9.142;2023-06-14T06:51:58;10.43;;;5.13;;
46437;SDS011;32137;48.728;9.142;2023-06-14T06:54:29;13.88;;;4.80;;
46437;SDS011;32137;48.728;9.142;2023-06-14T06:56:54;9.05;;;4.65;;
46437;SDS011;32137;48.728;9.142;2023-06-14T06:59:20;7.60;;;4.22;;
46437;SDS011;32137;48.728;9.142;2023-06-14T07:01:46;11.63;;;5.40;;
46437;SDS011;32137;48.728;9.142;2023-06-14T07:04:12;6.20;;;4.13;;
46437;SDS011;32137;48.728;9.142;2023-06-14T07:06:38;6.63;;;3.92;;
46437;SDS011;32137;48.728;9.142;2023-06-14T07:09:04;8.20;;;4.72;;
46437;SDS011;32137;48.728;9.142;2023-06-14T07:11:33;9.60;;;4.82;;
46437;SDS011;32137;48.728;9.142;2023-06-14T07:13:59;7.78;;;4.78;;
46437;SDS011;32137;48.728;9.142;2023-06-14T07:16:24;11.23;;;4.97;;
46437;SDS011;32137;48.728;9.142;2023-06-14T07:18:50;8.25;;;4.68;;
46437;SDS011;32137;48.728;9.142;2023-06-14T07:21:17;9.25;;;4.95;;
46437;SDS011;32137;48.728;9.142;2023-06-14T07:23:43;6.80;;;4.93;;
46437;SDS011;32137;48.728;9.142;2023-06-14T07:26:08;9.25;;;5.32;;
46437;SDS011;32137;48.728;9.142;2023-06-14T07:28:34;8.30;;;4.10;;
46437;SDS011;32137;48.728;9.142;2023-06-14T07:30:59;6.88;;;4.68;;
46437;SDS011;32137;48.728;9.142;2023-06-14T07:33:25;7.90;;;4.78;;
46437;SDS011;32137;48.728;9.142;2023-06-14T07:35:50;9.77;;;5.10;;
46437;SDS011;32137;48.728;9.142;2023-06-14T07:38:17;12.35;;;5.13;;
46437;SDS011;32137;48.728;9.142;2023-06-14T07:40:43;5.80;;;4.32;;
46437;SDS011;32137;48.728;9.142;2023-06-14T07:43:09;6.40;;;4.32;;
46437;SDS011;32137;48.728;9.142;2023-06-14T07:45:34;11.40;;;5.90;;
46437;SDS011;32137;48.728;9.142;2023-06-14T07:48:00;9.20;;;4.85;;
46437;SDS011;32137;48.728;9.142;2023-06-14T07:50:25;8.65;;;5.05;;
46437;SDS011;32137;48.728;9.142;2023-06-14T07:52:51;8.73;;;4.97;;
46437;SDS011;32137;48.728;9.142;2023-06-14T07:55:16;8.27;;;4.68;;
46437;SDS011;32137;48.728;9.142;2023-06-14T07:57:42;8.57;;;4.93;;
46437;SDS011;32137;48.728;9.142;2023-06-14T08:00:10;14.43;;;5.05;;
46437;SDS011;32137;48.728;9.142;2023-06-14T08:02:43;13.38;;;4.55;;
46437;SDS011;32137;48.728;9.142;2023-06-14T08:05:09;9.95;;;5.50;;
46437;SDS011;32137;48.728;9.142;2023-06-14T08:07:36;6.97;;;4.75;;
46437;SDS011;32137;48.728;9.142;2023-06-14T08:10:05;15.38;;;4.95;;
46437;SDS011;32137;48.728;9.142;2023-06-14T08:12:32;8.88;;;4.97;;
46437;SDS011;32137;48.728;9.142;2023-06-14T08:14:58;9.40;;;4.65;;
46437;SDS011;32137;48.728;9.142;2023-06-14T08:17:24;11.65;;;4.97;;
46437;SDS011;32137;48.728;9.142;2023-06-14T08:19:50;9.35;;;5.30;;
46437;SDS011;32137;48.728;9.142;2023-06-14T08:22:16;6.68;;;4.57;;
46437;SDS011;32137;48.728;9.142;2023-06-14T08:24:43;5.75;;;4.18;;
46437;SDS011;32137;48.728;9.142;2023-06-14T08:27:09;6.50;;;4.63;;
46437;SDS011;32137;48.728;9.142;2023-06-14T08:29:36;7.97;;;4.95;;
46437;SDS011;32137;48.728;9.142;2023-06-14T08:32:03;8.65;;;5.20;;
46437;SDS011;32137;48.728;9.142;2023-06-14T08:34:29;7.50;;;4.90;;
46437;SDS011;32137;48.728;9.142;2023-06-14T08:36:55;6.10;;;4.13;;
46437;SDS011;32137;48.728;9.142;2023-06-14T08:39:20;17.25;;;5.05;;
46437;SDS011;32137;48.728;9.142;2023-06-14T08:41:47;11.38;;;5.15;;
46437;SDS011;32137;48.728;9.142;2023-06-14T08:44:16;7.20;;;4.82;;
46437;SDS011;32137;48.728;9.142;2023-06-14T08:46:42;11.75;;;4.72;;
46437;SDS011;32137;48.728;9.142;2023-06-14T08:49:08;9.02;;;4.72;;
46437;SDS011;32137;48.728;9.142;2023-06-14T08:51:37;9.27;;;4.38;;
46437;SDS011;32137;48.728;9.142;2023-06-14T08:54:05;16.45;;;5.28;;
46437;SDS011;32137;48.728;9.142;2023-06-14T08:56:32;12.65;;;5.03;;
46437;SDS011;32137;48.728;9.142;2023-06-14T08:58:59;7.38;;;5.07;;
46437;SDS011;32137;48.728;9.142;2023-06-14T09:01:34;10.07;;;4.60;;
46437;SDS011;32137;48.728;9.142;2023-06-14T09:04:01;10.68;;;4.97;;
46437;SDS011;32137;48.728;9.142;2023-06-14T09:06:27;8.38;;;4.63;;
46437;SDS011;32137;48.728;9.142;2023-06-14T09:08:54;11.00;;;4.38;;
46437;SDS011;32137;48.728;9.142;2023-06-14T09:11:23;11.15;;;5.32;;
46437;SDS011;32137;48.728;9.142;2023-06-14T09:13:51;8.60;;;5.18;;
46437;SDS011;32137;48.728;9.142;2023-06-14T09:16:16;7.63;;;4.68;;
46437;SDS011;32137;48.728;9.142;2023-06-14T09:18:43;7.30;;;4.10;;
46437;SDS011;32137;48.728;9.142;2023-06-14T09:21:11;7.03;;;5.10;;
46437;SDS011;32137;48.728;9.142;2023-06-14T09:23:38;10.80;;;4.72;;
46437;SDS011;32137;48.728;9.142;2023-06-14T09:28:43;9.13;;;4.50;;
46437;SDS011;32137;48.728;9.142;2023-06-14T09:31:12;13.00;;;5.28;;
46437;SDS011;32137;48.728;9.142;2023-06-14T09:33:41;15.18;;;5.57;;
46437;SDS011;32137;48.728;9.142;2023-06-14T09:36:13;15.75;;;5.20;;
46437;SDS011;32137;48.728;9.142;2023-06-14T09:38:57;7.68;;;4.47;;
46437;SDS011;32137;48.728;9.142;2023-06-14T09:41:33;9.82;;;5.38;;
46437;SDS011;32137;48.728;9.142;2023-06-14T09:44:04;9.15;;;4.22;;
46437;SDS011;32137;48.728;9.142;2023-06-14T09:46:32;10.07;;;4.57;;
46437;SDS011;32137;48.728;9.142;2023-06-14T09:48:59;10.82;;;4.78;;
46437;SDS011;32137;48.728;9.142;2023-06-14T09:51:25;11.50;;;5.00;;
46437;SDS011;32137;48.728;9.142;2023-06-14T09:53:52;7.57;;;4.63;;
46437;SDS011;32137;48.728;9.142;2023-06-14T09:56:24;22.10;;;4.13;;
46437;SDS011;32137;48.728;9.142;2023-06-14T09:58:57;17.08;;;5.10;;
46437;SDS011;32137;48.728;9.142;2023-06-14T10:01:24;5.75;;;4.35;;
46437;SDS011;32137;48.728;9.142;2023-06-14T10:03:52;5.97;;;3.45;;
46437;SDS011;32137;48.728;9.142;2023-06-14T10:06:23;8.82;;;4.47;;
46437;SDS011;32137;48.728;9.142;2023-06-14T10:08:50;7.60;;;4.15;;
46437;SDS011;32137;48.728;9.142;2023-06-14T10:11:19;10.63;;;4.53;;
46437;SDS011;32137;48.728;9.142;2023-06-14T10:13:45;10.57;;;5.35;;
46437;SDS011;32137;48.728;9.142;2023-06-14T10:16:19;10.13;;;4.53;;
46437;SDS011;32137;48.728;9.142;2023-06-14T10:18:59;12.07;;;4.72;;
46437;SDS011;32137;48.728;9.142;2023-06-14T10:24:32;5.63;;;3.95;;
46437;SDS011;32137;48.728;9.142;2023-06-14T10:26:58;8.25;;;4.40;;
46437;SDS011;32137;48.728;9.142;2023-06-14T10:29:26;10.25;;;4.40;;
46437;SDS011;32137;48.728;9.142;2023-06-14T10:31:57;10.38;;;4.53;;
46437;SDS011;32137;48.728;9.142;2023-06-14T10:34:24;9.25;;;4.90;;
46437;SDS011;32137;48.728;9.142;2023-06-14T10:37:04;9.65;;;4.78;;
46437;SDS011;32137;48.728;9.142;2023-06-14T10:39:31;14.98;;;4.18;;
46437;SDS011;32137;48.728;9.142;2023-06-14T10:42:03;7.38;;;4.07;;
46437;SDS011;32137;48.728;9.142;2023-06-14T10:44:37;14.90;;;5.20;;
46437;SDS011;32137;48.728;9.142;2023-06-14T10:47:06;7.18;;;3.90;;
46437;SDS011;32137;48.728;9.142;2023-06-14T10:49:40;8.80;;;4.45;;
46437;SDS011;32137;48.728;9.142;2023-06-14T10:52:16;10.48;;;4.72;;
46437;SDS011;32137;48.728;9.142;2023-06-14T10:55:01;8.32;;;4.57;;
46437;SDS011;32137;48.728;9.142;2023-06-14T10:57:29;7.47;;;3.80;;
46437;SDS011;32137;48.728;9.142;2023-06-14T10:59:56;8.18;;;3.80;;
46437;SDS011;32137;48.728;9.142;2023-06-14T11:05:23;10.70;;;5.13;;
46437;SDS011;32137;48.728;9.142;2023-06-14T11:11:05;6.05;;;4.07;;
46437;SDS011;32137;48.728;9.142;2023-06-14T11:13:32;8.00;;;4.20;;
46437;SDS011;32137;48.728;9.142;2023-06-14T11:15:58;6.57;;;4.20;;
46437;SDS011;32137;48.728;9.142;2023-06-14T11:18:24;8.05;;;4.43;;
46437;SDS011;32137;48.728;9.142;2023-06-14T11:20:50;7.35;;;4.53;;
46437;SDS011;32137;48.728;9.142;2023-06-14T11:23:16;7.15;;;4.68;;
46437;SDS011;32137;48.728;9.142;2023-06-14T11:25:41;6.28;;;4.57;;
46437;SDS011;32137;48.728;9.142;2023-06-14T11:28:07;6.55;;;3.78;;
46437;SDS011;32137;48.728;9.142;2023-06-14T11:30:33;5.00;;;3.80;;
46437;SDS011;32137;48.728;9.142;2023-06-14T11:32:59;11.23;;;4.30;;
46437;SDS011;32137;48.728;9.142;2023-06-14T11:35:25;13.07;;;6.20;;
46437;SDS011;32137;48.728;9.142;2023-06-14T11:37:54;9.23;;;4.82;;
46437;SDS011;32137;48.728;9.142;2023-06-14T11:40:23;6.95;;;4.03;;
46437;SDS011;32137;48.728;9.142;2023-06-14T11:42:50;9.60;;;3.80;;
46437;SDS011;32137;48.728;9.142;2023-06-14T11:45:23;13.63;;;4.20;;
46437;SDS011;32137;48.728;9.142;2023-06-14T11:47:50;6.78;;;4.00;;
46437;SDS011;32137;48.728;9.142;2023-06-14T11:50:16;11.25;;;3.80;;
46437;SDS011;32137;48.728;9.142;2023-06-14T11:52:41;7.65;;;3.92;;
46437;SDS011;32137;48.728;9.142;2023-06-14T11:55:07;8.63;;;4.13;;
46437;SDS011;32137;48.728;9.142;2023-06-14T11:57:34;10.25;;;4.35;;
46437;SDS011;32137;48.728;9.142;2023-06-14T12:00:02;7.57;;;3.45;;
46437;SDS011;32137;48.728;9.142;2023-06-14T12:02:31;4.45;;;3.35;;
46437;SDS011;32137;48.728;9.142;2023-06-14T12:05:03;6.05;;;3.47;;
46437;SDS011;32137;48.728;9.142;2023-06-14T12:07:31;6.13;;;3.80;;
46437;SDS011;32137;48.728;9.142;2023-06-14T12:12:22;17.63;;;3.70;;
46437;SDS011;32137;48.728;9.142;2023-06-14T12:14:50;6.80;;;3.40;;
46437;SDS011;32137;48.728;9.142;2023-06-14T12:17:17;6.55;;;3.92;;
46437;SDS011;32137;48.728;9.142;2023-06-14T12:19:46;6.82;;;3.28;;
46437;SDS011;32137;48.728;9.142;2023-06-14T12:22:14;5.83;;;3.87;;
46437;SDS011;32137;48.728;9.142;2023-06-14T12:24:43;13.27;;;3.88;;
46437;SDS011;32137;48.728;9.142;2023-06-14T12:27:09;10.63;;;3.60;;
46437;SDS011;32137;48.728;9.142;2023-06-14T12:29:36;8.55;;;3.45;;
46437;SDS011;32137;48.728;9.142;2023-06-14T12:32:02;5.15;;;3.25;;
46437;SDS011;32137;48.728;9.142;2023-06-14T12:34:28;5.78;;;2.92;;
46437;SDS011;32137;48.728;9.142;2023-06-14T12:36:53;18.17;;;3.15;;
46437;SDS011;32137;48.728;9.142;2023-06-14T12:39:20;7.75;;;2.85;;
46437;SDS011;32137;48.728;9.142;2023-06-14T12:41:46;6.07;;;3.22;;
46437;SDS011;32137;48.728;9.142;2023-06-14T12:44:11;6.72;;;3.25;;
46437;SDS011;32137;48.728;9.142;2023-06-14T12:46:38;6.80;;;3.40;;
46437;SDS011;32137;48.728;9.142;2023-06-14T12:49:08;5.40;;;3.30;;
46437;SDS011;32137;48.728;9.142;2023-06-14T12:51:37;8.95;;;3.58;;
46437;SDS011;32137;48.728;9.142;2023-06-14T12:54:04;8.57;;;3.92;;
46437;SDS011;32137;48.728;9.142;2023-06-14T12:56:29;12.15;;;4.28;;
46437;SDS011;32137;48.728;9.142;2023-06-14T12:58:55;8.43;;;3.35;;
46437;SDS011;32137;48.728;9.142;2023-06-14T13:01:21;5.97;;;3.40;;
46437;SDS011;32137;48.728;9.142;2023-06-14T13:03:47;8.50;;;3.65;;
46437;SDS011;32137;48.728;9.142;2023-06-14T13:06:13;9.80;;;3.60;;
46437;SDS011;32137;48.728;9.142;2023-06-14T13:08:39;5.55;;;3.67;;
46437;SDS011;32137;48.728;9.142;2023-06-14T13:11:04;16.23;;;4.80;;
46437;SDS011;32137;48.728;9.142;2023-06-14T13:13:30;8.55;;;3.47;;
46437;SDS011;32137;48.728;9.142;2023-06-14T13:15:55;7.90;;;3.92;;
46437;SDS011;32137;48.728;9.142;2023-06-14T13:18:21;5.43;;;3.83;;
46437;SDS011;32137;48.728;9.142;2023-06-14T13:20:47;6.05;;;3.00;;
46437;SDS011;32137;48.728;9.142;2023-06-14T13:23:12;5.95;;;3.35;;
46437;SDS011;32137;48.728;9.142;2023-06-14T13:25:40;6.38;;;3.50;;
46437;SDS011;32137;48.728;9.142;2023-06-14T13:28:06;4.07;;;2.97;;
46437;SDS011;32137;48.728;9.142;2023-06-14T13:30:32;9.88;;;4.35;;
46437;SDS011;32137;48.728;9.142;2023-06-14T13:32:58;5.20;;;3.50;;
46437;SDS011;32137;48.728;9.142;2023-06-14T13:35:24;6.80;;;3.70;;
46437;SDS011;32137;48.728;9.142;2023-06-14T13:37:50;12.27;;;3.78;;
46437;SDS011;32137;48.728;9.142;2023-06-14T13:40:16;9.20;;;3.55;;
46437;SDS011;32137;48.728;9.142;2023-06-14T13:42:41;7.10;;;4.07;;
46437;SDS011;32137;48.728;9.142;2023-06-14T13:45:07;6.68;;;3.67;;
46437;SDS011;32137;48.728;9.142;2023-06-14T13:47:35;7.85;;;3.30;;
46437;SDS011;32137;48.728;9.142;2023-06-14T13:50:00;8.73;;;3.47;;
46437;SDS011;32137;48.728;9.142;2023-06-14T13:52:28;6.65;;;3.50;;
46437;SDS011;32137;48.728;9.142;2023-06-14T13:54:53;7.05;;;3.88;;
46437;SDS011;32137;48.728;9.142;2023-06-14T13:57:19;6.50;;;3.72;;
46437;SDS011;32137;48.728;9.142;2023-06-14T13:59:45;6.05;;;3.45;;
46437;SDS011;32137;48.728;9.142;2023-06-14T14:02:10;6.80;;;3.45;;
46437;SDS011;32137;48.728;9.142;2023-06-14T14:04:37;7.07;;;3.05;;
46437;SDS011;32137;48.728;9.142;2023-06-14T14:07:04;6.85;;;3.45;;
46437;SDS011;32137;48.728;9.142;2023-06-14T14:09:31;6.13;;;3.17;;
46437;SDS011;32137;48.728;9.142;2023-06-14T14:12:00;7.15;;;3.15;;
46437;SDS011;32137;48.728;9.142;2023-06-14T14:14:30;5.38;;;3.40;;
46437;SDS011;32137;48.728;9.142;2023-06-14T14:16:57;7.50;;;3.40;;
46437;SDS011;32137;48.728;9.142;2023-06-14T14:19:22;5.45;;;3.47;;
46437;SDS011;32137;48.728;9.142;2023-06-14T14:21:49;7.05;;;3.65;;
46437;SDS011;32137;48.728;9.142;2023-06-14T14:24:15;4.53;;;2.97;;
46437;SDS011;32137;48.728;9.142;2023-06-14T14:26:41;6.40;;;3.10;;
46437;SDS011;32137;48.728;9.142;2023-06-14T14:29:07;6.55;;;3.30;;
46437;SDS011;32137;48.728;9.142;2023-06-14T14:31:33;6.55;;;2.70;;
46437;SDS011;32137;48.728;9.142;2023-06-14T14:33:59;8.27;;;3.53;;
46437;SDS011;32137;48.728;9.142;2023-06-14T14:36:25;8.18;;;4.03;;
46437;SDS011;32137;48.728;9.142;2023-06-14T14:38:51;10.77;;;3.40;;
46437;SDS011;32137;48.728;9.142;2023-06-14T14:41:16;7.80;;;2.95;;
46437;SDS011;32137;48.728;9.142;2023-06-14T14:43:42;7.38;;;3.85;;
46437;SDS011;32137;48.728;9.142;2023-06-14T14:46:08;6.25;;;3.30;;
46437;SDS011;32137;48.728;9.142;2023-06-14T14:48:33;3.72;;;2.50;;
46437;SDS011;32137;48.728;9.142;2023-06-14T14:50:59;6.80;;;3.53;;
46437;SDS011;32137;48.728;9.142;2023-06-14T14:53:24;13.40;;;3.45;;
46437;SDS011;32137;48.728;9.142;2023-06-14T14:55:50;9.90;;;3.42;;
46437;SDS011;32137;48.728;9.142;2023-06-14T14:58:16;8.68;;;3.55;;
46437;SDS011;32137;48.728;9.142;2023-06-14T15:00:44;8.05;;;3.88;;